createdAt,value
2017-10-05T00:00:18.878Z,15.73
2017-10-05T00:00:47.005Z,15.84
2017-10-05T00:01:15.018Z,15.74
2017-10-05T00:01:43.098Z,15.74
2017-10-05T00:02:10.910Z,15.77
2017-10-05T00:02:38.889Z,15.83
2017-10-05T00:03:06.910Z,15.8
2017-10-05T00:03:34.896Z,15.73
2017-10-05T00:04:02.885Z,15.84
2017-10-05T00:04:31.013Z,15.71
2017-10-05T00:04:58.909Z,15.73
2017-10-05T00:05:26.999Z,15.75
2017-10-05T00:05:55.141Z,15.77
2017-10-05T00:06:23.075Z,15.74
2017-10-05T00:06:51.181Z,15.74
2017-10-05T00:07:19.164Z,15.71
2017-10-05T00:07:47.297Z,15.68
2017-10-05T00:08:15.372Z,15.75
2017-10-05T00:08:43.395Z,15.67
2017-10-05T00:09:11.458Z,15.65
2017-10-05T00:09:39.492Z,15.68
2017-10-05T00:10:07.367Z,15.68
2017-10-05T00:10:35.491Z,15.73
2017-10-05T00:11:03.571Z,15.7
2017-10-05T00:11:31.581Z,15.63
2017-10-05T00:11:59.679Z,15.68
2017-10-05T00:12:27.688Z,15.75
2017-10-05T00:12:55.790Z,15.6
2017-10-05T00:13:23.761Z,15.58
2017-10-05T00:13:51.880Z,15.63
2017-10-05T00:14:19.897Z,15.65
2017-10-05T00:14:47.891Z,15.62
2017-10-05T00:15:15.904Z,15.55
2017-10-05T00:15:43.916Z,15.55
2017-10-05T00:16:12.011Z,15.52
2017-10-05T00:16:40.080Z,15.53
2017-10-05T00:17:08.179Z,15.56
2017-10-05T00:17:36.281Z,15.58
2017-10-05T00:18:04.488Z,15.47
2017-10-05T00:18:32.614Z,15.51
2017-10-05T00:19:00.627Z,15.59
2017-10-05T00:19:28.493Z,15.51
2017-10-05T00:19:56.508Z,15.55
2017-10-05T00:20:24.527Z,15.49
2017-10-05T00:20:52.554Z,15.52
2017-10-05T00:21:20.454Z,15.59
2017-10-05T00:21:48.577Z,15.49
2017-10-05T00:22:16.658Z,15.56
2017-10-05T00:22:44.741Z,15.45
2017-10-05T00:23:12.624Z,15.49
2017-10-05T00:23:40.555Z,15.37
2017-10-05T00:24:08.681Z,15.37
2017-10-05T00:24:36.497Z,15.41
2017-10-05T00:25:04.461Z,15.34
2017-10-05T00:25:32.453Z,15.31
2017-10-05T00:26:00.445Z,15.43
2017-10-05T00:26:28.426Z,15.41
2017-10-05T00:26:56.413Z,15.34
2017-10-05T00:27:24.439Z,15.38
2017-10-05T00:28:24.333Z,15.43
2017-10-05T00:32:36.002Z,15.44
2017-10-05T00:36:41.241Z,15.33
2017-10-05T00:37:12.231Z,15.41
2017-10-05T00:37:40.223Z,15.37
2017-10-05T00:38:08.314Z,15.4
2017-10-05T00:38:36.603Z,15.37
2017-10-05T00:39:04.744Z,15.35
2017-10-05T00:39:32.705Z,15.34
2017-10-05T00:40:00.812Z,15.35
2017-10-05T00:40:28.623Z,15.4
2017-10-05T00:40:56.609Z,15.41
2017-10-05T00:41:24.719Z,15.47
2017-10-05T00:41:52.710Z,15.41
2017-10-05T00:42:20.633Z,15.34
2017-10-05T00:42:48.757Z,15.44
2017-10-05T00:43:16.888Z,15.34
2017-10-05T00:43:45.064Z,15.38
2017-10-05T00:44:13.003Z,15.37
2017-10-05T00:44:41.000Z,15.23
2017-10-05T00:45:09.098Z,15.3
2017-10-05T00:45:37.026Z,15.3
2017-10-05T00:46:04.926Z,15.33
2017-10-05T00:46:32.935Z,15.25
2017-10-05T00:47:00.949Z,15.27
2017-10-05T00:47:29.091Z,15.2
2017-10-05T00:47:57.128Z,15.19
2017-10-05T00:48:25.226Z,15.2
2017-10-05T00:48:53.519Z,15.23
2017-10-05T00:49:21.566Z,15.19
2017-10-05T00:49:49.593Z,15.13
2017-10-05T00:50:17.713Z,15.15
2017-10-05T00:50:45.799Z,15.13
2017-10-05T00:51:13.897Z,15.12
2017-10-05T00:51:41.910Z,15.08
2017-10-05T00:52:09.820Z,15.07
2017-10-05T00:52:37.931Z,15.07
2017-10-05T00:53:05.930Z,15.08
2017-10-05T00:53:34.067Z,15.01
2017-10-05T00:54:02.331Z,15
2017-10-05T00:54:30.435Z,15
2017-10-05T00:54:58.534Z,15.08
2017-10-05T00:55:26.669Z,15.07
2017-10-05T00:55:54.562Z,15.07
2017-10-05T00:56:22.549Z,15.04
2017-10-05T00:56:50.660Z,15.1
2017-10-05T00:57:18.774Z,15.12
2017-10-05T00:57:46.770Z,15.12
2017-10-05T00:58:14.775Z,15.05
2017-10-05T00:58:43.017Z,15.08
2017-10-05T00:59:10.919Z,15.19
2017-10-05T00:59:39.040Z,15.18
2017-10-05T01:00:07.169Z,15.18
2017-10-05T01:00:35.312Z,15.2
2017-10-05T01:01:03.331Z,15.15
2017-10-05T01:01:31.353Z,15.15
2017-10-05T01:01:59.464Z,15.18
2017-10-05T01:02:27.357Z,15.16
2017-10-05T01:02:55.470Z,15.18
2017-10-05T01:03:23.607Z,15.13
2017-10-05T01:03:51.879Z,15.16
2017-10-05T01:04:19.890Z,15.18
2017-10-05T01:04:47.882Z,15.2
2017-10-05T01:05:16.000Z,15.18
2017-10-05T01:05:44.092Z,15.13
2017-10-05T01:06:12.081Z,15.18
2017-10-05T01:06:39.978Z,15.16
2017-10-05T01:07:08.080Z,15.15
2017-10-05T01:07:36.190Z,15.16
2017-10-05T01:08:04.201Z,15.13
2017-10-05T01:08:32.348Z,15.19
2017-10-05T01:09:00.358Z,15.19
2017-10-05T01:09:28.327Z,15.16
2017-10-05T01:09:56.401Z,15.19
2017-10-05T01:10:24.320Z,15.16
2017-10-05T01:10:52.410Z,15.16
2017-10-05T01:11:20.299Z,15.13
2017-10-05T01:11:48.293Z,15.16
2017-10-05T01:12:16.287Z,15.18
2017-10-05T01:12:44.402Z,15.18
2017-10-05T01:13:12.322Z,15.15
2017-10-05T01:13:40.223Z,15.15
2017-10-05T01:14:08.486Z,15.16
2017-10-05T01:14:36.418Z,15.12
2017-10-05T01:15:04.426Z,15.08
2017-10-05T01:15:32.433Z,15.07
2017-10-05T01:16:00.433Z,15.07
2017-10-05T01:16:28.540Z,15.15
2017-10-05T01:16:56.671Z,15.05
2017-10-05T01:17:24.781Z,15.07
2017-10-05T01:17:52.901Z,15.08
2017-10-05T01:18:20.884Z,15
2017-10-05T01:18:48.993Z,14.98
2017-10-05T01:19:17.383Z,14.98
2017-10-05T01:19:45.410Z,14.93
2017-10-05T01:20:13.516Z,14.93
2017-10-05T01:20:41.600Z,14.93
2017-10-05T01:21:09.582Z,15.01
2017-10-05T01:21:37.591Z,15.02
2017-10-05T01:22:05.508Z,14.97
2017-10-05T01:22:33.641Z,14.95
2017-10-05T01:23:01.792Z,15
2017-10-05T01:23:29.872Z,14.98
2017-10-05T01:23:58.100Z,15.01
2017-10-05T01:24:26.197Z,14.98
2017-10-05T01:24:54.187Z,14.95
2017-10-05T01:25:22.108Z,14.93
2017-10-05T01:25:50.122Z,14.89
2017-10-05T01:26:17.940Z,14.97
2017-10-05T01:26:45.871Z,14.89
2017-10-05T01:27:13.776Z,14.8
2017-10-05T01:27:41.800Z,14.98
2017-10-05T01:28:09.766Z,14.86
2017-10-05T01:28:37.855Z,14.93
2017-10-05T01:29:06.168Z,14.97
2017-10-05T01:29:34.192Z,14.95
2017-10-05T01:30:02.173Z,14.89
2017-10-05T01:30:30.088Z,14.97
2017-10-05T01:30:58.210Z,14.95
2017-10-05T01:31:26.297Z,14.94
2017-10-05T01:31:54.413Z,14.98
2017-10-05T01:32:22.390Z,14.98
2017-10-05T01:32:50.493Z,14.95
2017-10-05T01:33:18.619Z,14.9
2017-10-05T01:33:46.635Z,14.9
2017-10-05T01:34:14.893Z,14.93
2017-10-05T01:34:42.926Z,14.95
2017-10-05T01:35:10.927Z,14.97
2017-10-05T01:35:39.029Z,14.87
2017-10-05T01:36:07.135Z,14.97
2017-10-05T01:36:35.220Z,14.94
2017-10-05T01:37:03.121Z,14.89
2017-10-05T01:37:31.139Z,14.86
2017-10-05T01:37:59.172Z,14.83
2017-10-05T01:38:27.192Z,14.82
2017-10-05T01:38:55.319Z,14.89
2017-10-05T01:39:23.501Z,14.82
2017-10-05T01:39:51.513Z,14.85
2017-10-05T01:40:19.531Z,14.87
2017-10-05T01:40:47.644Z,14.79
2017-10-05T01:41:15.640Z,14.86
2017-10-05T01:41:43.620Z,14.8
2017-10-05T01:42:11.740Z,14.83
2017-10-05T01:42:39.859Z,14.87
2017-10-05T01:43:07.883Z,14.86
2017-10-05T01:43:35.992Z,14.87
2017-10-05T01:44:04.096Z,14.85
2017-10-05T01:44:32.335Z,14.83
2017-10-05T01:45:00.202Z,14.79
2017-10-05T01:45:28.215Z,14.83
2017-10-05T01:45:56.325Z,14.82
2017-10-05T01:46:24.216Z,14.85
2017-10-05T01:46:52.225Z,14.86
2017-10-05T01:47:20.114Z,14.94
2017-10-05T01:47:48.218Z,14.83
2017-10-05T01:48:16.240Z,15
2017-10-05T01:48:44.357Z,14.97
2017-10-05T01:49:12.702Z,14.9
2017-10-05T01:49:40.829Z,14.89
2017-10-05T01:50:08.818Z,14.95
2017-10-05T01:50:36.892Z,14.95
2017-10-05T01:51:05.041Z,14.95
2017-10-05T01:51:33.140Z,14.93
2017-10-05T01:52:01.149Z,14.93
2017-10-05T01:52:29.152Z,14.94
2017-10-05T01:52:57.263Z,14.93
2017-10-05T01:53:25.263Z,15.01
2017-10-05T01:53:53.074Z,15.05
2017-10-05T01:54:21.239Z,15.02
2017-10-05T01:54:49.337Z,15.12
2017-10-05T01:55:17.443Z,15.16
2017-10-05T01:55:45.538Z,15.16
2017-10-05T01:56:13.562Z,15.15
2017-10-05T01:56:41.706Z,15.15
2017-10-05T01:57:09.700Z,15.1
2017-10-05T01:57:37.816Z,15.15
2017-10-05T01:58:05.813Z,15.12
2017-10-05T01:58:33.804Z,15.15
2017-10-05T01:59:01.807Z,15.16
2017-10-05T01:59:30.052Z,15.15
2017-10-05T01:59:57.980Z,15.2
2017-10-05T02:00:25.973Z,15.13
2017-10-05T02:00:54.086Z,15.22
2017-10-05T02:01:22.087Z,15.27
2017-10-05T02:01:50.187Z,15.27
2017-10-05T02:02:18.206Z,15.27
2017-10-05T02:02:46.293Z,15.37
2017-10-05T02:03:14.412Z,15.33
2017-10-05T02:03:42.300Z,15.41
2017-10-05T02:04:10.314Z,15.33
2017-10-05T02:04:38.674Z,15.38
2017-10-05T02:05:06.700Z,15.49
2017-10-05T02:05:34.711Z,15.44
2017-10-05T02:06:02.675Z,15.4
2017-10-05T02:06:30.766Z,15.41
2017-10-05T02:06:58.846Z,15.4
2017-10-05T02:07:26.848Z,15.4
2017-10-05T02:07:54.881Z,15.38
2017-10-05T02:08:22.981Z,15.37
2017-10-05T02:08:51.064Z,15.38
2017-10-05T02:09:19.091Z,15.4
2017-10-05T02:09:47.343Z,15.35
2017-10-05T02:10:15.369Z,15.33
2017-10-05T02:10:43.480Z,15.33
2017-10-05T02:11:11.470Z,15.27
2017-10-05T02:11:39.600Z,15.3
2017-10-05T02:12:07.694Z,15.27
2017-10-05T02:12:35.642Z,15.25
2017-10-05T02:13:03.739Z,15.25
2017-10-05T02:13:31.721Z,15.19
2017-10-05T02:13:59.841Z,15.2
2017-10-05T02:14:28.088Z,15.18
2017-10-05T02:14:56.236Z,15.15
2017-10-05T02:15:24.353Z,15.02
2017-10-05T02:15:52.444Z,15.04
2017-10-05T02:16:20.463Z,15.07
2017-10-05T02:16:48.346Z,15.05
2017-10-05T02:17:16.343Z,15.07
2017-10-05T02:17:44.481Z,15.02
2017-10-05T02:18:12.360Z,15.13
2017-10-05T02:18:40.355Z,15.08
2017-10-05T02:19:08.357Z,15.12
2017-10-05T02:19:36.488Z,15.19
2017-10-05T02:20:04.268Z,15.2
2017-10-05T02:20:32.271Z,15.22
2017-10-05T02:21:00.287Z,15.3
2017-10-05T02:21:28.203Z,15.25
2017-10-05T02:21:56.079Z,15.34
2017-10-05T02:22:24.201Z,15.25
2017-10-05T02:22:52.101Z,15.33
2017-10-05T02:23:20.113Z,15.27
2017-10-05T02:23:48.211Z,15.3
2017-10-05T02:24:16.136Z,15.25
2017-10-05T02:24:44.415Z,15.19
2017-10-05T02:25:12.551Z,15.27
2017-10-05T02:25:40.473Z,15.33
2017-10-05T02:26:08.493Z,15.26
2017-10-05T02:26:36.397Z,15.3
2017-10-05T02:27:04.395Z,15.3
2017-10-05T02:27:32.405Z,15.4
2017-10-05T02:28:00.519Z,15.37
2017-10-05T02:28:28.404Z,15.31
2017-10-05T02:28:56.419Z,15.33
2017-10-05T02:29:24.548Z,15.3
2017-10-05T02:29:52.700Z,15.35
2017-10-05T02:30:20.584Z,15.3
2017-10-05T02:30:48.593Z,15.34
2017-10-05T02:31:16.701Z,15.34
2017-10-05T02:31:44.814Z,15.33
2017-10-05T02:32:12.862Z,15.33
2017-10-05T02:32:40.868Z,15.3
2017-10-05T02:33:09.000Z,15.25
2017-10-05T02:33:36.970Z,15.25
2017-10-05T02:34:04.987Z,15.23
2017-10-05T02:34:32.980Z,15.33
2017-10-05T02:35:01.324Z,15.27
2017-10-05T02:35:29.452Z,15.25
2017-10-05T02:35:57.450Z,15.27
2017-10-05T02:36:25.342Z,15.34
2017-10-05T02:36:53.346Z,15.33
2017-10-05T02:37:21.352Z,15.34
2017-10-05T02:37:49.356Z,15.33
2017-10-05T02:38:17.475Z,15.43
2017-10-05T02:38:45.514Z,15.35
2017-10-05T02:39:13.373Z,15.31
2017-10-05T02:39:41.573Z,15.4
2017-10-05T02:40:09.450Z,15.37
2017-10-05T02:40:37.564Z,15.53
2017-10-05T02:41:05.736Z,15.45
2017-10-05T02:41:33.879Z,15.52
2017-10-05T02:42:01.877Z,15.49
2017-10-05T02:42:29.878Z,15.45
2017-10-05T02:42:57.962Z,15.45
2017-10-05T02:43:26.105Z,15.47
2017-10-05T02:43:54.102Z,15.53
2017-10-05T02:44:22.154Z,15.49
2017-10-05T02:44:50.330Z,15.51
2017-10-05T02:45:18.456Z,15.49
2017-10-05T02:45:46.462Z,15.47
2017-10-05T02:46:14.632Z,15.45
2017-10-05T02:46:42.654Z,15.47
2017-10-05T02:47:10.719Z,15.45
2017-10-05T02:47:38.730Z,15.45
2017-10-05T02:48:06.770Z,15.43
2017-10-05T02:48:34.792Z,15.45
2017-10-05T02:49:02.801Z,15.51
2017-10-05T02:49:30.707Z,15.51
2017-10-05T02:49:58.916Z,15.49
2017-10-05T02:50:27.025Z,15.45
2017-10-05T02:50:54.844Z,15.45
2017-10-05T02:51:22.956Z,15.52
2017-10-05T02:51:51.084Z,15.45
2017-10-05T02:52:19.174Z,15.53
2017-10-05T02:52:47.147Z,15.6
2017-10-05T02:53:15.164Z,15.47
2017-10-05T02:53:43.277Z,15.55
2017-10-05T02:54:11.210Z,15.59
2017-10-05T02:54:39.222Z,15.49
2017-10-05T02:55:07.434Z,15.44
2017-10-05T02:55:35.551Z,15.44
2017-10-05T02:56:03.668Z,15.44
2017-10-05T02:56:31.748Z,15.58
2017-10-05T02:56:59.719Z,15.56
2017-10-05T02:57:27.510Z,15.49
2017-10-05T02:57:55.622Z,15.52
2017-10-05T02:58:23.645Z,15.59
2017-10-05T02:58:51.795Z,15.51
2017-10-05T02:59:19.788Z,15.47
2017-10-05T02:59:47.802Z,15.35
2017-10-05T03:00:15.997Z,15.47
2017-10-05T03:00:44.145Z,15.51
2017-10-05T03:01:12.240Z,15.45
2017-10-05T03:01:40.345Z,15.41
2017-10-05T03:02:08.352Z,15.55
2017-10-05T03:02:36.449Z,15.56
2017-10-05T03:03:04.480Z,15.7
2017-10-05T03:03:32.361Z,15.65
2017-10-05T03:04:00.395Z,15.68
2017-10-05T03:04:28.369Z,15.67
2017-10-05T03:04:56.613Z,15.63
2017-10-05T03:05:24.511Z,15.75
2017-10-05T03:05:52.649Z,15.68
2017-10-05T03:06:20.639Z,15.75
2017-10-05T03:06:48.626Z,15.65
2017-10-05T03:07:16.535Z,15.63
2017-10-05T03:07:44.621Z,15.67
2017-10-05T03:08:12.615Z,15.7
2017-10-05T03:08:40.566Z,15.6
2017-10-05T03:09:08.572Z,15.63
2017-10-05T03:09:36.669Z,15.65
2017-10-05T03:10:04.897Z,15.68
2017-10-05T03:10:32.883Z,15.65
2017-10-05T03:11:00.807Z,15.81
2017-10-05T03:11:28.834Z,15.7
2017-10-05T03:11:56.974Z,15.74
2017-10-05T03:12:24.987Z,15.77
2017-10-05T03:12:53.093Z,15.83
2017-10-05T03:13:20.913Z,15.73
2017-10-05T03:13:48.932Z,15.77
2017-10-05T03:14:16.919Z,15.77
2017-10-05T03:14:44.911Z,15.77
2017-10-05T03:15:12.937Z,15.77
2017-10-05T03:15:40.961Z,15.75
2017-10-05T03:16:08.976Z,15.8
2017-10-05T03:16:37.087Z,15.78
2017-10-05T03:17:05.197Z,15.73
2017-10-05T03:17:33.316Z,15.74
2017-10-05T03:18:01.392Z,15.77
2017-10-05T03:18:29.286Z,15.78
2017-10-05T03:18:57.280Z,15.7
2017-10-05T03:19:25.289Z,15.77
2017-10-05T03:19:53.363Z,15.7
2017-10-05T03:20:21.551Z,15.7
2017-10-05T03:20:49.539Z,15.71
2017-10-05T03:21:17.568Z,15.65
2017-10-05T03:21:45.401Z,15.65
2017-10-05T03:22:13.497Z,15.7
2017-10-05T03:22:41.620Z,15.73
2017-10-05T03:23:09.610Z,15.67
2017-10-05T03:23:37.705Z,15.71
2017-10-05T03:24:05.668Z,15.67
2017-10-05T03:24:33.794Z,15.65
2017-10-05T03:25:01.940Z,15.67
2017-10-05T03:25:30.050Z,15.68
2017-10-05T03:25:57.970Z,15.73
2017-10-05T03:26:25.871Z,15.71
2017-10-05T03:26:53.885Z,15.62
2017-10-05T03:27:22.004Z,15.68
2017-10-05T03:27:50.102Z,15.52
2017-10-05T03:28:18.230Z,15.56
2017-10-05T03:28:46.220Z,15.49
2017-10-05T03:29:14.031Z,15.51
2017-10-05T03:29:42.019Z,15.51
2017-10-05T03:30:10.291Z,15.56
2017-10-05T03:30:38.315Z,15.51
2017-10-05T03:31:06.408Z,15.58
2017-10-05T03:31:34.493Z,15.51
2017-10-05T03:32:02.391Z,15.47
2017-10-05T03:32:30.274Z,15.38
2017-10-05T03:32:58.379Z,15.34
2017-10-05T03:33:26.500Z,15.43
2017-10-05T03:33:54.577Z,15.4
2017-10-05T03:34:22.623Z,15.34
2017-10-05T03:34:50.719Z,15.38
2017-10-05T03:35:19.065Z,15.35
2017-10-05T03:35:47.059Z,15.34
2017-10-05T03:36:14.975Z,15.4
2017-10-05T03:36:42.780Z,15.4
2017-10-05T03:37:10.873Z,15.56
2017-10-05T03:37:39.006Z,15.43
2017-10-05T03:38:07.111Z,15.44
2017-10-05T03:38:35.201Z,15.45
2017-10-05T03:39:03.103Z,15.45
2017-10-05T03:39:31.070Z,15.49
2017-10-05T03:39:59.189Z,15.51
2017-10-05T03:40:27.328Z,15.49
2017-10-05T03:40:55.334Z,15.51
2017-10-05T03:41:23.230Z,15.51
2017-10-05T03:41:51.220Z,15.45
2017-10-05T03:42:19.291Z,15.55
2017-10-05T03:42:47.206Z,15.4
2017-10-05T03:43:15.100Z,15.45
2017-10-05T03:43:42.998Z,15.37
2017-10-05T03:44:10.843Z,15.38
2017-10-05T03:44:38.771Z,15.41
2017-10-05T03:45:06.902Z,15.33
2017-10-05T03:45:34.954Z,15.3
2017-10-05T03:46:02.840Z,15.43
2017-10-05T03:46:30.839Z,15.35
2017-10-05T03:46:58.678Z,15.38
2017-10-05T03:47:26.760Z,15.31
2017-10-05T03:47:54.869Z,15.25
2017-10-05T03:48:22.714Z,15.33
2017-10-05T03:48:50.731Z,15.27
2017-10-05T03:49:18.816Z,15.27
2017-10-05T03:49:46.861Z,15.38
2017-10-05T03:50:14.717Z,15.38
2017-10-05T03:50:42.981Z,15.3
2017-10-05T03:51:10.909Z,15.33
2017-10-05T03:51:38.966Z,15.33
2017-10-05T03:52:07.109Z,15.31
2017-10-05T03:52:35.140Z,15.33
2017-10-05T03:53:03.147Z,15.33
2017-10-05T03:53:31.109Z,15.31
2017-10-05T03:53:59.196Z,15.37
2017-10-05T03:54:27.293Z,15.44
2017-10-05T03:54:55.201Z,15.47
2017-10-05T03:55:23.420Z,15.41
2017-10-05T03:55:51.306Z,15.45
2017-10-05T03:56:19.206Z,15.45
2017-10-05T03:56:47.220Z,15.38
2017-10-05T03:57:15.332Z,15.4
2017-10-05T03:57:43.338Z,15.37
2017-10-05T03:58:11.264Z,15.49
2017-10-05T03:58:39.259Z,15.45
2017-10-05T03:59:07.359Z,15.47
2017-10-05T03:59:35.364Z,15.59
2017-10-05T04:00:03.350Z,15.59
2017-10-05T04:00:31.417Z,15.55
2017-10-05T04:00:59.511Z,15.58
2017-10-05T04:01:27.393Z,15.6
2017-10-05T04:01:55.421Z,15.49
2017-10-05T04:02:23.525Z,15.53
2017-10-05T04:02:51.648Z,15.43
2017-10-05T04:03:19.632Z,15.51
2017-10-05T04:03:47.726Z,15.49
2017-10-05T04:04:15.745Z,15.45
2017-10-05T04:04:43.849Z,15.53
2017-10-05T04:05:11.938Z,15.56
2017-10-05T04:05:40.078Z,15.59
2017-10-05T04:06:07.989Z,15.59
2017-10-05T04:06:35.976Z,15.47
2017-10-05T04:07:03.984Z,15.45
2017-10-05T04:07:31.955Z,15.53
2017-10-05T04:08:00.053Z,15.47
2017-10-05T04:08:28.054Z,15.51
2017-10-05T04:08:56.181Z,15.49
2017-10-05T04:09:24.057Z,15.4
2017-10-05T04:09:52.054Z,15.4
2017-10-05T04:10:20.139Z,15.38
2017-10-05T04:10:48.404Z,15.33
2017-10-05T04:11:16.404Z,15.44
2017-10-05T04:11:44.427Z,15.38
2017-10-05T04:12:12.388Z,15.37
2017-10-05T04:12:40.407Z,15.33
2017-10-05T04:13:08.432Z,15.34
2017-10-05T04:13:36.544Z,15.4
2017-10-05T04:14:04.655Z,15.38
2017-10-05T04:14:32.661Z,15.33
2017-10-05T04:15:00.744Z,15.33
2017-10-05T04:15:28.871Z,15.38
2017-10-05T04:15:57.066Z,15.35
2017-10-05T04:16:25.217Z,15.34
2017-10-05T04:16:53.198Z,15.33
2017-10-05T04:17:21.183Z,15.33
2017-10-05T04:17:49.067Z,15.27
2017-10-05T04:18:16.986Z,15.26
2017-10-05T04:18:45.110Z,15.3
2017-10-05T04:19:13.014Z,15.2
2017-10-05T04:19:40.913Z,15.15
2017-10-05T04:20:08.924Z,15.23
2017-10-05T04:20:37.176Z,15.16
2017-10-05T04:21:05.192Z,15.15
2017-10-05T04:21:33.167Z,15.15
2017-10-05T04:22:01.275Z,15.15
2017-10-05T04:22:29.249Z,15.13
2017-10-05T04:22:57.369Z,15.16
2017-10-05T04:23:25.400Z,15.19
2017-10-05T04:23:53.487Z,15.19
2017-10-05T04:24:21.624Z,15.13
2017-10-05T04:24:49.753Z,15.16
2017-10-05T04:25:17.766Z,15.19
2017-10-05T04:25:45.937Z,15.27
2017-10-05T04:26:13.885Z,15.22
2017-10-05T04:26:42.010Z,15.27
2017-10-05T04:27:10.024Z,15.2
2017-10-05T04:27:37.936Z,15.16
2017-10-05T04:28:05.821Z,15.15
2017-10-05T04:28:33.712Z,15.23
2017-10-05T04:29:01.742Z,15.16
2017-10-05T04:29:29.634Z,15.22
2017-10-05T04:29:57.753Z,15.1
2017-10-05T04:30:25.786Z,15.07
2017-10-05T04:30:53.975Z,15.05
2017-10-05T04:31:21.919Z,15.15
2017-10-05T04:31:49.941Z,15.05
2017-10-05T04:32:18.070Z,15.08
2017-10-05T04:32:45.960Z,15.01
2017-10-05T04:33:14.071Z,15.07
2017-10-05T04:33:42.160Z,15.01
2017-10-05T04:34:10.186Z,15.05
2017-10-05T04:34:38.077Z,15.02
2017-10-05T04:35:06.159Z,15.07
2017-10-05T04:35:34.254Z,15.02
2017-10-05T04:36:02.469Z,15.07
2017-10-05T04:36:30.373Z,14.97
2017-10-05T04:36:58.474Z,15
2017-10-05T04:37:26.587Z,15.01
2017-10-05T04:37:54.494Z,15.04
2017-10-05T04:38:22.588Z,15
2017-10-05T04:38:50.391Z,15.04
2017-10-05T04:39:18.518Z,15.04
2017-10-05T04:39:46.634Z,15.07
2017-10-05T04:40:14.652Z,15.07
2017-10-05T04:40:42.634Z,15.05
2017-10-05T04:41:10.730Z,14.98
2017-10-05T04:41:38.825Z,15.05
2017-10-05T04:42:06.712Z,15.07
2017-10-05T04:42:34.854Z,15.07
2017-10-05T04:43:02.988Z,15.04
2017-10-05T04:43:31.082Z,15.02
2017-10-05T04:43:59.060Z,15.04
2017-10-05T04:44:26.963Z,15.07
2017-10-05T04:44:55.071Z,15.07
2017-10-05T04:45:23.110Z,15.05
2017-10-05T04:45:51.298Z,15.05
2017-10-05T04:46:19.320Z,15.13
2017-10-05T04:46:47.299Z,15.13
2017-10-05T04:47:15.277Z,15.02
2017-10-05T04:47:43.373Z,15.08
2017-10-05T04:48:11.460Z,15.04
2017-10-05T04:48:39.538Z,15.05
2017-10-05T04:49:07.617Z,15.02
2017-10-05T04:49:35.409Z,15
2017-10-05T04:50:03.416Z,14.98
2017-10-05T04:50:31.335Z,14.98
2017-10-05T04:50:59.501Z,15
2017-10-05T04:51:27.599Z,15.01
2017-10-05T04:51:55.712Z,14.93
2017-10-05T04:52:23.816Z,14.95
2017-10-05T04:52:51.710Z,14.98
2017-10-05T04:53:19.721Z,14.94
2017-10-05T04:53:47.770Z,14.94
2017-10-05T04:54:15.873Z,14.93
2017-10-05T04:54:43.775Z,14.9
2017-10-05T04:55:11.814Z,14.9
2017-10-05T04:55:39.701Z,14.95
2017-10-05T04:56:07.964Z,14.95
2017-10-05T04:56:36.067Z,14.89
2017-10-05T04:57:04.160Z,14.86
2017-10-05T04:57:32.051Z,14.89
2017-10-05T04:58:00.056Z,14.93
2017-10-05T04:58:28.175Z,14.9
2017-10-05T04:58:56.240Z,14.9
2017-10-05T04:59:24.051Z,14.97
2017-10-05T04:59:52.083Z,14.98
2017-10-05T05:00:20.193Z,14.95
2017-10-05T05:00:48.220Z,14.94
2017-10-05T05:01:16.380Z,14.86
2017-10-05T05:01:44.392Z,14.86
2017-10-05T05:02:12.411Z,14.87
2017-10-05T05:02:40.425Z,14.86
2017-10-05T05:03:08.348Z,14.79
2017-10-05T05:03:36.130Z,14.94
2017-10-05T05:04:04.159Z,14.9
2017-10-05T05:04:32.054Z,14.86
2017-10-05T05:05:00.048Z,14.94
2017-10-05T05:05:27.911Z,14.97
2017-10-05T05:05:55.824Z,15.02
2017-10-05T05:06:24.011Z,14.98
2017-10-05T05:06:51.981Z,15
2017-10-05T05:07:20.082Z,15.02
2017-10-05T05:07:48.174Z,15.02
2017-10-05T05:08:16.195Z,15.07
2017-10-05T05:08:44.179Z,15.15
2017-10-05T05:09:12.293Z,15.2
2017-10-05T05:09:40.118Z,15.15
2017-10-05T05:10:08.225Z,15.18
2017-10-05T05:10:36.312Z,15.19
2017-10-05T05:11:04.537Z,15.16
2017-10-05T05:11:32.560Z,15.16
2017-10-05T05:12:00.452Z,15.16
2017-10-05T05:12:28.557Z,15.16
2017-10-05T05:12:56.481Z,15.12
2017-10-05T05:13:24.480Z,15.15
2017-10-05T05:13:52.487Z,15.13
2017-10-05T05:14:20.384Z,15.18
2017-10-05T05:14:48.367Z,15.08
2017-10-05T05:15:16.451Z,15.13
2017-10-05T05:15:44.478Z,15
2017-10-05T05:16:12.625Z,15.05
2017-10-05T05:16:40.628Z,15.1
2017-10-05T05:17:08.716Z,15.1
2017-10-05T05:17:36.864Z,15.08
2017-10-05T05:18:04.884Z,15.04
2017-10-05T05:18:32.891Z,15.15
2017-10-05T05:19:00.875Z,15.1
2017-10-05T05:19:29.003Z,15.08
2017-10-05T05:19:57.019Z,15.04
2017-10-05T05:20:25.035Z,15.1
2017-10-05T05:20:53.166Z,15.04
2017-10-05T05:21:21.370Z,15.07
2017-10-05T05:21:49.376Z,15.02
2017-10-05T05:22:17.385Z,15.02
2017-10-05T05:22:45.194Z,15.05
2017-10-05T05:23:13.374Z,15.05
2017-10-05T05:23:41.394Z,15.01
2017-10-05T05:24:09.492Z,15.04
2017-10-05T05:24:37.587Z,15.07
2017-10-05T05:25:05.610Z,15.04
2017-10-05T05:25:33.794Z,15.05
2017-10-05T05:26:01.610Z,15.07
2017-10-05T05:26:29.897Z,15.01
2017-10-05T05:26:57.807Z,15.04
2017-10-05T05:27:25.928Z,15.1
2017-10-05T05:27:54.005Z,14.97
2017-10-05T05:28:21.971Z,15.07
2017-10-05T05:28:49.965Z,15.12
2017-10-05T05:29:18.069Z,15.1
2017-10-05T05:29:46.098Z,15.1
2017-10-05T05:30:14.222Z,15.18
2017-10-05T05:30:42.363Z,15.08
2017-10-05T05:31:10.471Z,15.15
2017-10-05T05:31:38.359Z,15.08
2017-10-05T05:32:06.278Z,15.04
2017-10-05T05:32:34.401Z,15.08
2017-10-05T05:33:02.427Z,15.1
2017-10-05T05:33:30.529Z,15.12
2017-10-05T05:33:58.498Z,15.01
2017-10-05T05:34:26.430Z,15.04
2017-10-05T05:34:54.453Z,15.01
2017-10-05T05:35:22.550Z,15.01
2017-10-05T05:35:50.657Z,14.98
2017-10-05T05:36:18.700Z,14.89
2017-10-05T05:36:46.802Z,14.93
2017-10-05T05:37:14.710Z,15
2017-10-05T05:37:42.734Z,14.98
2017-10-05T05:38:10.840Z,14.98
2017-10-05T05:38:38.929Z,14.93
2017-10-05T05:39:07.065Z,15.01
2017-10-05T05:39:35.064Z,14.94
2017-10-05T05:40:03.121Z,14.97
2017-10-05T05:40:31.139Z,14.95
2017-10-05T05:40:59.233Z,14.98
2017-10-05T05:41:27.454Z,14.98
2017-10-05T05:41:55.259Z,14.87
2017-10-05T05:42:23.268Z,14.93
2017-10-05T05:42:51.256Z,14.97
2017-10-05T05:43:19.363Z,14.9
2017-10-05T05:43:47.384Z,14.94
2017-10-05T05:44:15.349Z,14.95
2017-10-05T05:44:43.360Z,14.98
2017-10-05T05:45:11.383Z,14.95
2017-10-05T05:45:39.302Z,15
2017-10-05T05:46:07.369Z,15.01
2017-10-05T05:46:35.601Z,14.98
2017-10-05T05:47:03.703Z,14.93
2017-10-05T05:47:31.649Z,14.95
2017-10-05T05:47:59.677Z,15.04
2017-10-05T05:48:27.794Z,14.89
2017-10-05T05:48:55.896Z,14.97
2017-10-05T05:49:23.995Z,14.87
2017-10-05T05:49:51.996Z,14.9
2017-10-05T05:50:19.899Z,14.95
2017-10-05T05:50:48.029Z,14.9
2017-10-05T05:51:16.107Z,14.89
2017-10-05T05:51:44.141Z,14.89
2017-10-05T05:52:12.067Z,14.86
2017-10-05T05:52:39.968Z,14.8
2017-10-05T05:53:07.960Z,14.89
2017-10-05T05:53:35.972Z,14.83
2017-10-05T05:54:04.016Z,14.89
2017-10-05T05:54:32.012Z,14.87
2017-10-05T05:55:00.025Z,14.93
2017-10-05T05:55:27.994Z,14.9
2017-10-05T05:55:55.891Z,14.93
2017-10-05T05:56:23.902Z,14.9
2017-10-05T05:56:52.121Z,14.97
2017-10-05T05:57:20.106Z,14.87
2017-10-05T05:57:47.931Z,14.9
2017-10-05T05:58:15.981Z,14.93
2017-10-05T05:58:43.850Z,14.8
2017-10-05T05:59:11.728Z,14.8
2017-10-05T05:59:39.633Z,14.85
2017-10-05T06:00:07.430Z,14.82
2017-10-05T06:00:35.347Z,14.79
2017-10-05T06:01:03.493Z,14.77
2017-10-05T06:01:31.675Z,14.75
2017-10-05T06:01:59.596Z,14.82
2017-10-05T06:02:27.721Z,14.71
2017-10-05T06:02:55.714Z,14.7
2017-10-05T06:03:23.840Z,14.8
2017-10-05T06:03:51.848Z,14.8
2017-10-05T06:04:19.990Z,14.75
2017-10-05T06:04:47.970Z,14.83
2017-10-05T06:05:15.971Z,14.75
2017-10-05T06:05:43.980Z,14.75
2017-10-05T06:06:11.912Z,14.75
2017-10-05T06:06:40.047Z,14.79
2017-10-05T06:07:08.087Z,14.63
2017-10-05T06:07:36.188Z,14.67
2017-10-05T06:08:04.213Z,14.69
2017-10-05T06:08:32.133Z,14.69
2017-10-05T06:09:00.269Z,14.79
2017-10-05T06:09:28.299Z,14.85
2017-10-05T06:09:56.305Z,14.75
2017-10-05T06:10:24.419Z,14.74
2017-10-05T06:10:52.466Z,14.79